Dotti J — WCAE — position and weather

sailwx.info

Track history (hours):
 
Tides and Currents Weather Stations Pressure Air Temp Water Temp Dewpoint Dewpoint Depression Visibility Wind Speed Wind Dir Waves Ship Positions

Dotti J

Owner: PRECON MARINE INC, CHESAPEAKE, VA. More information available from US FCC via Universal Licensing System and Coast Guard Vessel Documentation Center.

Last reported at 2017-Sep-21 00:32 UTC. Time now 2017-Sep-21 05:03 UTC.
Position N 38°46' W 076°21'.

Length 20 m; draft 2.9 m.

Type: Tug. MMSI: 366880470.

Date/timePositionNaut miles runAvg speedWind from/ knotsBaromVisibWave heightAir tempDewpointWater temp
2017-Sep-21 00:32N 38°46' W 076°21'2 0.1
2017-Sep-20 12:27N 38°48' W 076°21'4 3.4
2017-Sep-20 11:17N 38°51' W 076°25'1 4.4
2017-Sep-20 11:01N 38°52' W 076°25'2 4.1
2017-Sep-20 10:27N 38°54' W 076°25'2 3.8
2017-Sep-20 10:00N 38°56' W 076°25'2 4.1
2017-Sep-20 09:30N 38°58' W 076°24'2 4.0
2017-Sep-20 09:00N 38°59' W 076°23'2 4.0
2017-Sep-20 08:30N 39°01' W 076°22'2 4.1
2017-Sep-20 08:01N 39°03' W 076°21'2 4.1
2017-Sep-20 07:30N 39°05' W 076°21'2 4.5
2017-Sep-20 07:00N 39°08' W 076°20'2 4.7
2017-Sep-20 06:31N 39°10' W 076°18'3 5.2
2017-Sep-20 06:00N 39°12' W 076°16'3 5.3
2017-Sep-20 05:30N 39°14' W 076°15'5 5.4
2017-Sep-20 04:38N 39°18' W 076°13'1 5.5
2017-Sep-20 04:29N 39°19' W 076°13'3 5.4
2017-Sep-20 04:00N 39°21' W 076°10'3 5.2
2017-Sep-20 03:30N 39°22' W 076°07'2 4.7
2017-Sep-20 03:00N 39°23' W 076°05'2 4.1
2017-Sep-20 02:30N 39°25' W 076°03'2 3.8
2017-Sep-20 02:00N 39°27' W 076°02'2 3.7
2017-Sep-20 01:30N 39°28' W 076°03'2 3.5
2017-Sep-20 01:00N 39°30' W 076°05'2 3.7
2017-Sep-20 00:30N 39°31' W 076°05'1 2.6
2017-Sep-19 23:59N 39°33' W 076°05'0 0.0
2017-Sep-19 23:29N 39°33' W 076°05'0 0.0
2017-Sep-19 22:59N 39°33' W 076°05'0 0.0
2017-Sep-19 22:29N 39°33' W 076°05'0 0.0
2017-Sep-19 21:59N 39°33' W 076°05'0 0.0
2017-Sep-19 21:26N 39°33' W 076°05'0 0.0
2017-Sep-19 20:59N 39°33' W 076°05'0 0.0
2017-Sep-19 20:28N 39°33' W 076°05'0 0.1
2017-Sep-19 19:56N 39°33' W 076°05'0 0.0
2017-Sep-19 19:26N 39°33' W 076°05'0 0.0
2017-Sep-19 18:58N 39°33' W 076°05'0 0.0
2017-Sep-19 18:28N 39°33' W 076°05'0 0.0
2017-Sep-19 17:58N 39°33' W 076°05'0 0.0
2017-Sep-19 17:28N 39°33' W 076°05'0 0.0
2017-Sep-19 16:58N 39°33' W 076°05'0 0.0
2017-Sep-19 16:28N 39°33' W 076°05'0 0.0
2017-Sep-19 15:59N 39°33' W 076°05'0 0.0
2017-Sep-19 15:29N 39°33' W 076°05'0 0.0
2017-Sep-19 14:58N 39°33' W 076°05'0 0.0
2017-Sep-19 14:28N 39°33' W 076°05'0 0.0
2017-Sep-19 13:58N 39°33' W 076°05'0 0.0
2017-Sep-19 13:29N 39°33' W 076°05'0 0.0
2017-Sep-19 12:58N 39°33' W 076°05'0 0.0
2017-Sep-19 12:28N 39°33' W 076°05'0 0.0
2017-Sep-19 11:59N 39°33' W 076°05'0 0.0
2017-Sep-19 11:28N 39°33' W 076°05'0 0.0
2017-Sep-19 10:58N 39°33' W 076°05'0 0.8
2017-Sep-19 10:31N 39°33' W 076°05'1 1.4
2017-Sep-19 10:00N 39°33' W 076°06'0 0.0
2017-Sep-19 09:30N 39°33' W 076°06'0 0.0
2017-Sep-19 09:00N 39°33' W 076°06'0 0.0
2017-Sep-19 08:30N 39°33' W 076°06'0 0.0
2017-Sep-19 08:00N 39°33' W 076°06'0 0.0
2017-Sep-19 07:30N 39°33' W 076°06'0 0.0
2017-Sep-19 07:00N 39°33' W 076°06'0 0.0
2017-Sep-19 06:30N 39°33' W 076°06'0 0.0
2017-Sep-19 06:00N 39°33' W 076°06'0 0.0
2017-Sep-19 05:30N 39°33' W 076°06'0 0.0
2017-Sep-19 05:00N 39°33' W 076°06'0 0.0
2017-Sep-19 04:30N 39°33' W 076°06'0 0.0
2017-Sep-19 04:00N 39°33' W 076°06'0 0.0
2017-Sep-19 03:30N 39°33' W 076°06'0 0.0
2017-Sep-19 03:00N 39°33' W 076°06'0 0.0
2017-Sep-19 02:30N 39°33' W 076°06'0 0.0
2017-Sep-19 01:57N 39°33' W 076°06'0 0.0
2017-Sep-19 01:30N 39°33' W 076°06'0 0.0
2017-Sep-19 01:00N 39°33' W 076°06'0 0.0
2017-Sep-19 00:30N 39°33' W 076°06'0 0.0
2017-Sep-19 00:00N 39°33' W 076°06'0 0.0
2017-Sep-18 23:21N 39°33' W 076°06'0 0.0
2017-Sep-18 23:00N 39°33' W 076°06'0 0.0
2017-Sep-18 22:30N 39°33' W 076°06'0 0.0
2017-Sep-18 22:00N 39°33' W 076°06'0 0.0
2017-Sep-18 21:30N 39°33' W 076°06'1 2.2
2017-Sep-18 21:01N 39°33' W 076°04'2 4.2
2017-Sep-18 20:30N 39°34' W 076°06'0 0.1
2017-Sep-18 20:00N 39°34' W 076°06'0 0.0
2017-Sep-18 19:30N 39°34' W 076°06'0 0.0
2017-Sep-18 19:00N 39°34' W 076°06'0 0.0
2017-Sep-18 18:27N 39°34' W 076°06'1 1.2
2017-Sep-18 18:00N 39°34' W 076°06'1 2.0
2017-Sep-18 17:31N 39°33' W 076°05'1 2.7
2017-Sep-18 16:58N 39°34' W 076°06'1 2.1
2017-Sep-18 16:26N 39°33' W 076°06'0 0.0
2017-Sep-18 15:59N 39°33' W 076°05'0 0.0
2017-Sep-18 15:29N 39°33' W 076°06'0 0.0
2017-Sep-18 12:57N 39°33' W 076°05'1 2.7
2017-Sep-18 12:30N 39°34' W 076°06'0 0.0
2017-Sep-18 12:01N 39°34' W 076°06'0 0.1
2017-Sep-18 11:25N 39°34' W 076°06'2 4.9
2017-Sep-18 11:00N 39°33' W 076°05'2 2.5
2017-Sep-18 10:08N 39°34' W 076°06'0 0.0
2017-Sep-18 09:59N 39°34' W 076°06'0 0.0
2017-Sep-18 09:29N 39°34' W 076°06'0 0.0
2017-Sep-18 08:56N 39°34' W 076°06'0 0.0
2017-Sep-18 08:29N 39°34' W 076°06'0 0.0
2017-Sep-18 07:56N 39°34' W 076°06'0 0.0
2017-Sep-18 07:26N 39°34' W 076°06'0 0.0
2017-Sep-18 06:53N 39°34' W 076°06'0 0.0
2017-Sep-18 05:17N 39°34' W 076°06'0 0.0
2017-Sep-18 04:02N 39°34' W 076°06'0 0.0
2017-Sep-18 03:53N 39°34' W 076°06'0 0.0
2017-Sep-18 03:29N 39°34' W 076°06'0 1.0
2017-Sep-18 03:01N 39°34' W 076°06'2 3.3
2017-Sep-18 02:30N 39°33' W 076°05'1 1.7
2017-Sep-18 02:00N 39°32' W 076°05'2 5.0
2017-Sep-18 01:30N 39°29' W 076°05'2 5.0
2017-Sep-18 01:00N 39°28' W 076°03'2 5.0
2017-Sep-18 00:30N 39°25' W 076°03'3 5.6
2017-Sep-18 00:00N 39°23' W 076°05'3 6.1
2017-Sep-17 23:30N 39°22' W 076°09'3 6.4
2017-Sep-17 23:00N 39°20' W 076°12'3 6.3
2017-Sep-17 22:30N 39°17' W 076°13'32 3.3
2017-Sep-17 13:02N 38°46' W 076°24'0 7.3
2017-Sep-17 12:59N 38°47' W 076°24'1 0.8
2017-Sep-17 11:16N 38°47' W 076°22'0 1.2
2017-Sep-17 11:01N 38°47' W 076°22'1 1.0
2017-Sep-17 09:40N 38°48' W 076°23'1 4.3
2017-Sep-17 09:31N 38°48' W 076°23'3 3.7
2017-Sep-17 08:50N 38°51' W 076°24'1 4.0
2017-Sep-17 08:30N 38°52' W 076°25'2 3.6
2017-Sep-17 08:00N 38°54' W 076°25'2 3.6
2017-Sep-17 07:29N 38°55' W 076°25'2 3.6
2017-Sep-17 07:00N 38°57' W 076°24'2 3.7
2017-Sep-17 06:30N 38°59' W 076°23'2 3.5
2017-Sep-17 06:00N 39°01' W 076°23'2 3.7
2017-Sep-17 05:30N 39°02' W 076°22'2 3.7
2017-Sep-17 05:00N 39°04' W 076°21'2 4.0
2017-Sep-17 04:30N 39°06' W 076°20'2 4.3
2017-Sep-17 04:00N 39°08' W 076°20'2 5.0
2017-Sep-17 03:30N 39°10' W 076°18'3 5.4
2017-Sep-17 02:59N 39°12' W 076°16'3 5.5
2017-Sep-17 02:30N 39°15' W 076°14'3 5.7
2017-Sep-17 02:00N 39°17' W 076°14'3 5.5
2017-Sep-17 01:30N 39°20' W 076°12'3 5.5
2017-Sep-17 01:00N 39°21' W 076°09'3 5.3
2017-Sep-17 00:30N 39°23' W 076°06'2 4.6
2017-Sep-17 00:00N 39°24' W 076°03'2 4.1
2017-Sep-16 23:30N 39°26' W 076°02'2 3.7
2017-Sep-16 23:00N 39°28' W 076°03'2 3.8
2017-Sep-16 22:30N 39°29' W 076°05'2 3.1
2017-Sep-16 22:00N 39°30' W 076°05'2 3.4
2017-Sep-16 21:30N 39°32' W 076°05'1 1.6
2017-Sep-16 21:00N 39°33' W 076°05'0 0.3
2017-Sep-16 20:29N 39°33' W 076°05'2 3.5
2017-Sep-16 19:57N 39°34' W 076°06'2 4.5
2017-Sep-16 19:30N 39°33' W 076°05'2 3.9
2017-Sep-16 18:57N 39°34' W 076°06'1 1.9
2017-Sep-16 18:21N 39°33' W 076°05'0 0.0
2017-Sep-16 17:55N 39°33' W 076°06'0 0.0
2017-Sep-16 17:28N 39°33' W 076°05'0 0.0
2017-Sep-16 16:55N 39°33' W 076°06'0 0.0
2017-Sep-16 16:31N 39°33' W 076°05'0 0.0
2017-Sep-16 15:58N 39°33' W 076°05'0 0.0
2017-Sep-16 13:36N 39°33' W 076°05'0 0.0
2017-Sep-16 13:27N 39°33' W 076°05'0 0.0
2017-Sep-16 12:58N 39°33' W 076°05'0 0.0
2017-Sep-16 12:30N 39°33' W 076°05'0 0.0
2017-Sep-16 11:54N 39°33' W 076°05'0 0.0
2017-Sep-16 11:30N 39°33' W 076°05'1 1.7
2017-Sep-16 11:00N 39°34' W 076°06'1 2.6
2017-Sep-16 10:30N 39°33' W 076°05'1 1.8
2017-Sep-16 10:01N 39°34' W 076°06'1 2.9
2017-Sep-16 09:30N 39°33' W 076°04'0 0.0
2017-Sep-16 09:00N 39°33' W 076°04'0 0.1
2017-Sep-16 08:30N 39°33' W 076°04'0 0.1
2017-Sep-16 08:00N 39°33' W 076°04'1 1.7
2017-Sep-16 07:31N 39°32' W 076°05'3 6.0
2017-Sep-16 07:00N 39°29' W 076°05'3 5.9
2017-Sep-16 06:30N 39°27' W 076°02'3 5.9
2017-Sep-16 06:00N 39°24' W 076°04'3 5.7
2017-Sep-16 05:30N 39°23' W 076°07'3 5.6
2017-Sep-16 05:00N 39°21' W 076°10'3 5.2
2017-Sep-16 04:30N 39°19' W 076°12'2 4.7
2017-Sep-16 04:00N 39°17' W 076°14'3 5.2
2017-Sep-16 03:30N 39°15' W 076°14'3 5.0
2017-Sep-16 03:00N 39°12' W 076°15'3 4.8
2017-Sep-16 02:25N 39°10' W 076°18'2 4.8
2017-Sep-16 02:01N 39°09' W 076°19'3 5.1
2017-Sep-16 01:31N 39°06' W 076°20'3 5.2
2017-Sep-16 01:00N 39°04' W 076°21'3 5.2
2017-Sep-16 00:30N 39°01' W 076°22'3 4.7
2017-Sep-15 23:53N 38°58' W 076°23'12 1.0
2017-Sep-15 12:29N 38°47' W 076°22'1 1.3
2017-Sep-15 11:51N 38°46' W 076°21'0 0.0
2017-Sep-15 11:21N 38°46' W 076°21'0 0.0
2017-Sep-15 11:00N 38°46' W 076°21'0 0.0
2017-Sep-15 10:30N 38°46' W 076°21'0 0.0
2017-Sep-15 09:21N 38°46' W 076°21'0 0.6
2017-Sep-15 08:59N 38°46' W 076°21'5 3.9
2017-Sep-15 07:49N 38°50' W 076°24'2 4.5
2017-Sep-15 07:28N 38°52' W 076°24'2 4.6
2017-Sep-15 07:00N 38°54' W 076°24'2 4.2
2017-Sep-15 06:30N 38°56' W 076°24'2 3.8
2017-Sep-15 06:00N 38°58' W 076°23'2 3.9
2017-Sep-15 05:30N 39°00' W 076°23'2 3.5
2017-Sep-15 05:00N 39°02' W 076°22'2 3.7
2017-Sep-15 04:30N 39°04' W 076°21'2 3.7
2017-Sep-15 04:00N 39°05' W 076°21'2 3.8
2017-Sep-15 03:30N 39°07' W 076°20'2 4.2
2017-Sep-15 03:00N 39°09' W 076°19'2 4.8
2017-Sep-15 02:30N 39°11' W 076°17'3 5.0
2017-Sep-15 02:00N 39°13' W 076°15'3 5.2
2017-Sep-15 01:30N 39°15' W 076°14'3 5.6
2017-Sep-15 01:00N 39°18' W 076°13'3 5.7
2017-Sep-15 00:30N 39°20' W 076°11'3 5.8
2017-Sep-15 00:00N 39°22' W 076°08'3 5.6
2017-Sep-14 23:30N 39°23' W 076°05'2 4.8
2017-Sep-14 23:00N 39°25' W 076°03'2 4.2
2017-Sep-14 22:30N 39°27' W 076°03'2 4.4
2017-Sep-14 22:00N 39°29' W 076°05'2 3.8
2017-Sep-14 21:30N 39°31' W 076°05'2 4.1
2017-Sep-14 21:00N 39°33' W 076°05'0 0.4
2017-Sep-14 20:31N 39°33' W 076°05'2 3.9
2017-Sep-14 19:59N 39°34' W 076°06'0 0.1
2017-Sep-14 19:29N 39°34' W 076°06'0 0.0
2017-Sep-14 18:59N 39°34' W 076°06'0 0.0
2017-Sep-14 18:29N 39°34' W 076°06'0 0.0
2017-Sep-14 17:59N 39°34' W 076°06'0 0.0
2017-Sep-14 17:23N 39°34' W 076°06'0 1.0
2017-Sep-14 17:00N 39°34' W 076°06'2 3.0
2017-Sep-14 16:30N 39°33' W 076°05'2 3.6
2017-Sep-14 16:00N 39°34' W 076°06'0 0.1
2017-Sep-14 15:30N 39°34' W 076°06'0 0.0
2017-Sep-14 15:00N 39°34' W 076°06'0 0.0
2017-Sep-14 14:30N 39°34' W 076°06'0 0.0
2017-Sep-14 14:00N 39°34' W 076°06'0 0.0
2017-Sep-14 13:30N 39°34' W 076°06'0 0.0
2017-Sep-14 12:57N 39°34' W 076°06'0 0.0
2017-Sep-14 12:21N 39°34' W 076°06'0 0.0
2017-Sep-14 12:00N 39°34' W 076°06'0 0.0
2017-Sep-14 11:30N 39°34' W 076°06'0 0.0
2017-Sep-14 11:00N 39°34' W 076°06'0 0.0
2017-Sep-14 10:30N 39°34' W 076°06'0 0.0
2017-Sep-14 10:00N 39°34' W 076°06'2 3.6
2017-Sep-14 09:30N 39°33' W 076°05'1 1.7
2017-Sep-14 09:00N 39°34' W 076°05'1 1.5
2017-Sep-14 08:30N 39°34' W 076°06'2 3.9
2017-Sep-14 08:00N 39°33' W 076°05'0 0.1
2017-Sep-14 07:25N 39°33' W 076°05'2 4.8
2017-Sep-14 07:01N 39°31' W 076°05'3 5.2
2017-Sep-14 06:31N 39°28' W 076°04'3 5.7
2017-Sep-14 06:00N 39°26' W 076°02'3 6.3
2017-Sep-14 05:31N 39°23' W 076°05'3 6.9
2017-Sep-14 05:01N 39°22' W 076°09'3 6.7
2017-Sep-14 04:30N 39°20' W 076°12'3 6.3
2017-Sep-14 04:00N 39°17' W 076°14'3 6.3
2017-Sep-14 03:31N 39°14' W 076°15'3 6.4
2017-Sep-14 03:00N 39°11' W 076°17'3 6.1
2017-Sep-14 02:30N 39°09' W 076°20'3 5.8
2017-Sep-14 01:59N 39°06' W 076°21'3 6.1
2017-Sep-14 01:29N 39°03' W 076°22'3 6.0
2017-Sep-14 01:01N 39°00' W 076°23'9 5.5
2017-Sep-13 23:25N 38°51' W 076°25'2 5.3
2017-Sep-13 22:58N 38°49' W 076°23'2 5.1
2017-Sep-13 22:29N 38°47' W 076°22'1 0.1
2017-Sep-13 08:04N 38°46' W 076°21'0 0.0
2017-Sep-13 07:59N 38°46' W 076°21'0 0.0
2017-Sep-13 07:29N 38°46' W 076°21'0 0.0
2017-Sep-13 06:58N 38°46' W 076°21'0 0.0
2017-Sep-13 06:20N 38°46' W 076°21'0 0.0
2017-Sep-13 01:53N 38°46' W 076°21'0 0.0
2017-Sep-13 01:29N 38°46' W 076°21'5 4.4
2017-Sep-13 00:28N 38°50' W 076°24'3 5.8
2017-Sep-13 00:01N 38°53' W 076°24'3 5.9
2017-Sep-12 23:30N 38°56' W 076°24'4 6.5
2017-Sep-12 22:57N 38°60' W 076°23'3 6.4
2017-Sep-12 22:30N 39°02' W 076°22'3 6.4
2017-Sep-12 22:00N 39°05' W 076°21'3 6.6
2017-Sep-12 21:30N 39°08' W 076°19'4 6.9
2017-Sep-12 20:57N 39°11' W 076°16'3 6.7
2017-Sep-12 20:29N 39°14' W 076°14'5 6.4
2017-Sep-12 19:40N 39°19' W 076°12'1 6.1
2017-Sep-12 19:30N 39°20' W 076°12'3 5.8
2017-Sep-12 19:00N 39°22' W 076°09'3 5.6
2017-Sep-12 18:31N 39°23' W 076°05'3 5.0
2017-Sep-12 17:59N 39°25' W 076°03'3 4.9
2017-Sep-12 17:26N 39°27' W 076°03'2 5.0
2017-Sep-12 17:01N 39°29' W 076°05'2 4.6
2017-Sep-12 16:30N 39°31' W 076°05'2 5.0
2017-Sep-12 16:00N 39°34' W 076°05'1 1.8
2017-Sep-12 15:27N 39°34' W 076°06'0 0.0
2017-Sep-12 14:48N 39°34' W 076°06'0 0.0
2017-Sep-12 14:30N 39°34' W 076°06'0 0.0
2017-Sep-12 14:00N 39°34' W 076°06'0 0.0
2017-Sep-12 13:21N 39°34' W 076°06'0 0.0
2017-Sep-12 12:57N 39°34' W 076°06'0 0.1
2017-Sep-12 09:14N 39°34' W 076°06'0 0.0
2017-Sep-12 08:59N 39°34' W 076°06'0 0.0
2017-Sep-12 08:29N 39°34' W 076°06'0 0.0
2017-Sep-12 07:53N 39°34' W 076°06'0 0.0
2017-Sep-12 07:26N 39°34' W 076°06'0 0.0
2017-Sep-12 06:59N 39°34' W 076°06'0 0.0
2017-Sep-12 06:29N 39°34' W 076°06'1 2.5
2017-Sep-12 06:00N 39°33' W 076°05'3 6.6
2017-Sep-12 05:31N 39°30' W 076°05'3 6.5
2017-Sep-12 05:00N 39°27' W 076°03'3 6.8
2017-Sep-12 04:31N 39°24' W 076°03'4 7.6
2017-Sep-12 04:01N 39°22' W 076°08'4 7.7
2017-Sep-12 03:30N 39°20' W 076°12'4 7.5
2017-Sep-12 03:00N 39°17' W 076°14'4 7.3
2017-Sep-12 02:30N 39°13' W 076°15'4 7.5
2017-Sep-12 01:59N 39°10' W 076°18'11 7.0
2017-Sep-12 00:27N 38°60' W 076°23'5 6.8
2017-Sep-11 23:41N 38°55' W 076°24'8 0.8
2017-Sep-11 13:10N 38°46' W 076°24'1 5.5
2017-Sep-11 13:01N 38°47' W 076°23'1 0.5
2017-Sep-11 11:37N 38°47' W 076°22'0 0.2
2017-Sep-11 11:19N 38°47' W 076°22'0 1.3
2017-Sep-11 11:00N 38°47' W 076°22'  
Track history (hours):
 
Tides and Currents Weather Stations Pressure Air Temp Water Temp Dewpoint Dewpoint Depression Visibility Wind Speed Wind Dir Waves Ship Positions

Dotti J

Owner: PRECON MARINE INC, CHESAPEAKE, VA. More information available from US FCC via Universal Licensing System and Coast Guard Vessel Documentation Center.

Last reported at 2017-Sep-21 00:32 UTC. Time now 2017-Sep-21 05:03 UTC.
Position N 38°46' W 076°21'.

Length 20 m; draft 2.9 m.

Type: Tug. MMSI: 366880470.

Date/timePositionNaut miles runAvg speedWind from/ knotsBaromVisibWave heightAir tempDewpointWater temp
2017-Sep-21 00:32N 38°46' W 076°21'2 0.1
2017-Sep-20 12:27N 38°48' W 076°21'4 3.4
2017-Sep-20 11:17N 38°51' W 076°25'1 4.4
2017-Sep-20 11:01N 38°52' W 076°25'2 4.1
2017-Sep-20 10:27N 38°54' W 076°25'2 3.8
2017-Sep-20 10:00N 38°56' W 076°25'2 4.1
2017-Sep-20 09:30N 38°58' W 076°24'2 4.0
2017-Sep-20 09:00N 38°59' W 076°23'2 4.0
2017-Sep-20 08:30N 39°01' W 076°22'2 4.1
2017-Sep-20 08:01N 39°03' W 076°21'2 4.1
2017-Sep-20 07:30N 39°05' W 076°21'2 4.5
2017-Sep-20 07:00N 39°08' W 076°20'2 4.7
2017-Sep-20 06:31N 39°10' W 076°18'3 5.2
2017-Sep-20 06:00N 39°12' W 076°16'3 5.3
2017-Sep-20 05:30N 39°14' W 076°15'5 5.4
2017-Sep-20 04:38N 39°18' W 076°13'1 5.5
2017-Sep-20 04:29N 39°19' W 076°13'3 5.4
2017-Sep-20 04:00N 39°21' W 076°10'3 5.2
2017-Sep-20 03:30N 39°22' W 076°07'2 4.7
2017-Sep-20 03:00N 39°23' W 076°05'2 4.1
2017-Sep-20 02:30N 39°25' W 076°03'2 3.8
2017-Sep-20 02:00N 39°27' W 076°02'2 3.7
2017-Sep-20 01:30N 39°28' W 076°03'2 3.5
2017-Sep-20 01:00N 39°30' W 076°05'2 3.7
2017-Sep-20 00:30N 39°31' W 076°05'1 2.6
2017-Sep-19 23:59N 39°33' W 076°05'0 0.0
2017-Sep-19 23:29N 39°33' W 076°05'0 0.0
2017-Sep-19 22:59N 39°33' W 076°05'0 0.0
2017-Sep-19 22:29N 39°33' W 076°05'0 0.0
2017-Sep-19 21:59N 39°33' W 076°05'0 0.0
2017-Sep-19 21:26N 39°33' W 076°05'0 0.0
2017-Sep-19 20:59N 39°33' W 076°05'0 0.0
2017-Sep-19 20:28N 39°33' W 076°05'0 0.1
2017-Sep-19 19:56N 39°33' W 076°05'0 0.0
2017-Sep-19 19:26N 39°33' W 076°05'0 0.0
2017-Sep-19 18:58N 39°33' W 076°05'0 0.0
2017-Sep-19 18:28N 39°33' W 076°05'0 0.0
2017-Sep-19 17:58N 39°33' W 076°05'0 0.0
2017-Sep-19 17:28N 39°33' W 076°05'0 0.0
2017-Sep-19 16:58N 39°33' W 076°05'0 0.0
2017-Sep-19 16:28N 39°33' W 076°05'0 0.0
2017-Sep-19 15:59N 39°33' W 076°05'0 0.0
2017-Sep-19 15:29N 39°33' W 076°05'0 0.0
2017-Sep-19 14:58N 39°33' W 076°05'0 0.0
2017-Sep-19 14:28N 39°33' W 076°05'0 0.0
2017-Sep-19 13:58N 39°33' W 076°05'0 0.0
2017-Sep-19 13:29N 39°33' W 076°05'0 0.0
2017-Sep-19 12:58N 39°33' W 076°05'0 0.0
2017-Sep-19 12:28N 39°33' W 076°05'0 0.0
2017-Sep-19 11:59N 39°33' W 076°05'0 0.0
2017-Sep-19 11:28N 39°33' W 076°05'0 0.0
2017-Sep-19 10:58N 39°33' W 076°05'0 0.8
2017-Sep-19 10:31N 39°33' W 076°05'1 1.4
2017-Sep-19 10:00N 39°33' W 076°06'0 0.0
2017-Sep-19 09:30N 39°33' W 076°06'0 0.0
2017-Sep-19 09:00N 39°33' W 076°06'0 0.0
2017-Sep-19 08:30N 39°33' W 076°06'0 0.0
2017-Sep-19 08:00N 39°33' W 076°06'0 0.0
2017-Sep-19 07:30N 39°33' W 076°06'0 0.0
2017-Sep-19 07:00N 39°33' W 076°06'0 0.0
2017-Sep-19 06:30N 39°33' W 076°06'0 0.0
2017-Sep-19 06:00N 39°33' W 076°06'0 0.0
2017-Sep-19 05:30N 39°33' W 076°06'0 0.0
2017-Sep-19 05:00N 39°33' W 076°06'0 0.0
2017-Sep-19 04:30N 39°33' W 076°06'0 0.0
2017-Sep-19 04:00N 39°33' W 076°06'0 0.0
2017-Sep-19 03:30N 39°33' W 076°06'0 0.0
2017-Sep-19 03:00N 39°33' W 076°06'0 0.0
2017-Sep-19 02:30N 39°33' W 076°06'0 0.0
2017-Sep-19 01:57N 39°33' W 076°06'0 0.0
2017-Sep-19 01:30N 39°33' W 076°06'0 0.0
2017-Sep-19 01:00N 39°33' W 076°06'0 0.0
2017-Sep-19 00:30N 39°33' W 076°06'0 0.0
2017-Sep-19 00:00N 39°33' W 076°06'0 0.0
2017-Sep-18 23:21N 39°33' W 076°06'0 0.0
2017-Sep-18 23:00N 39°33' W 076°06'0 0.0
2017-Sep-18 22:30N 39°33' W 076°06'0 0.0
2017-Sep-18 22:00N 39°33' W 076°06'0 0.0
2017-Sep-18 21:30N 39°33' W 076°06'1 2.2
2017-Sep-18 21:01N 39°33' W 076°04'2 4.2
2017-Sep-18 20:30N 39°34' W 076°06'0 0.1
2017-Sep-18 20:00N 39°34' W 076°06'0 0.0
2017-Sep-18 19:30N 39°34' W 076°06'0 0.0
2017-Sep-18 19:00N 39°34' W 076°06'0 0.0
2017-Sep-18 18:27N 39°34' W 076°06'1 1.2
2017-Sep-18 18:00N 39°34' W 076°06'1 2.0
2017-Sep-18 17:31N 39°33' W 076°05'1 2.7
2017-Sep-18 16:58N 39°34' W 076°06'1 2.1
2017-Sep-18 16:26N 39°33' W 076°06'0 0.0
2017-Sep-18 15:59N 39°33' W 076°05'0 0.0
2017-Sep-18 15:29N 39°33' W 076°06'0 0.0
2017-Sep-18 12:57N 39°33' W 076°05'1 2.7
2017-Sep-18 12:30N 39°34' W 076°06'0 0.0
2017-Sep-18 12:01N 39°34' W 076°06'0 0.1
2017-Sep-18 11:25N 39°34' W 076°06'2 4.9
2017-Sep-18 11:00N 39°33' W 076°05'2 2.5
2017-Sep-18 10:08N 39°34' W 076°06'0 0.0
2017-Sep-18 09:59N 39°34' W 076°06'0 0.0
2017-Sep-18 09:29N 39°34' W 076°06'0 0.0
2017-Sep-18 08:56N 39°34' W 076°06'0 0.0
2017-Sep-18 08:29N 39°34' W 076°06'0 0.0
2017-Sep-18 07:56N 39°34' W 076°06'0 0.0
2017-Sep-18 07:26N 39°34' W 076°06'0 0.0
2017-Sep-18 06:53N 39°34' W 076°06'0 0.0
2017-Sep-18 05:17N 39°34' W 076°06'0 0.0
2017-Sep-18 04:02N 39°34' W 076°06'0 0.0
2017-Sep-18 03:53N 39°34' W 076°06'0 0.0
2017-Sep-18 03:29N 39°34' W 076°06'0 1.0
2017-Sep-18 03:01N 39°34' W 076°06'2 3.3
2017-Sep-18 02:30N 39°33' W 076°05'1 1.7
2017-Sep-18 02:00N 39°32' W 076°05'2 5.0
2017-Sep-18 01:30N 39°29' W 076°05'2 5.0
2017-Sep-18 01:00N 39°28' W 076°03'2 5.0
2017-Sep-18 00:30N 39°25' W 076°03'3 5.6
2017-Sep-18 00:00N 39°23' W 076°05'3 6.1
2017-Sep-17 23:30N 39°22' W 076°09'3 6.4
2017-Sep-17 23:00N 39°20' W 076°12'3 6.3
2017-Sep-17 22:30N 39°17' W 076°13'32 3.3
2017-Sep-17 13:02N 38°46' W 076°24'0 7.3
2017-Sep-17 12:59N 38°47' W 076°24'1 0.8
2017-Sep-17 11:16N 38°47' W 076°22'0 1.2
2017-Sep-17 11:01N 38°47' W 076°22'1 1.0
2017-Sep-17 09:40N 38°48' W 076°23'1 4.3
2017-Sep-17 09:31N 38°48' W 076°23'3 3.7
2017-Sep-17 08:50N 38°51' W 076°24'1 4.0
2017-Sep-17 08:30N 38°52' W 076°25'2 3.6
2017-Sep-17 08:00N 38°54' W 076°25'2 3.6
2017-Sep-17 07:29N 38°55' W 076°25'2 3.6
2017-Sep-17 07:00N 38°57' W 076°24'2 3.7
2017-Sep-17 06:30N 38°59' W 076°23'2 3.5
2017-Sep-17 06:00N 39°01' W 076°23'2 3.7
2017-Sep-17 05:30N 39°02' W 076°22'2 3.7
2017-Sep-17 05:00N 39°04' W 076°21'2 4.0
2017-Sep-17 04:30N 39°06' W 076°20'2 4.3
2017-Sep-17 04:00N 39°08' W 076°20'2 5.0
2017-Sep-17 03:30N 39°10' W 076°18'3 5.4
2017-Sep-17 02:59N 39°12' W 076°16'3 5.5
2017-Sep-17 02:30N 39°15' W 076°14'3 5.7
2017-Sep-17 02:00N 39°17' W 076°14'3 5.5
2017-Sep-17 01:30N 39°20' W 076°12'3 5.5
2017-Sep-17 01:00N 39°21' W 076°09'3 5.3
2017-Sep-17 00:30N 39°23' W 076°06'2 4.6
2017-Sep-17 00:00N 39°24' W 076°03'2 4.1
2017-Sep-16 23:30N 39°26' W 076°02'2 3.7
2017-Sep-16 23:00N 39°28' W 076°03'2 3.8
2017-Sep-16 22:30N 39°29' W 076°05'2 3.1
2017-Sep-16 22:00N 39°30' W 076°05'2 3.4
2017-Sep-16 21:30N 39°32' W 076°05'1 1.6
2017-Sep-16 21:00N 39°33' W 076°05'0 0.3
2017-Sep-16 20:29N 39°33' W 076°05'2 3.5
2017-Sep-16 19:57N 39°34' W 076°06'2 4.5
2017-Sep-16 19:30N 39°33' W 076°05'2 3.9
2017-Sep-16 18:57N 39°34' W 076°06'1 1.9
2017-Sep-16 18:21N 39°33' W 076°05'0 0.0
2017-Sep-16 17:55N 39°33' W 076°06'0 0.0
2017-Sep-16 17:28N 39°33' W 076°05'0 0.0
2017-Sep-16 16:55N 39°33' W 076°06'0 0.0
2017-Sep-16 16:31N 39°33' W 076°05'0 0.0
2017-Sep-16 15:58N 39°33' W 076°05'0 0.0
2017-Sep-16 13:36N 39°33' W 076°05'0 0.0
2017-Sep-16 13:27N 39°33' W 076°05'0 0.0
2017-Sep-16 12:58N 39°33' W 076°05'0 0.0
2017-Sep-16 12:30N 39°33' W 076°05'0 0.0
2017-Sep-16 11:54N 39°33' W 076°05'0 0.0
2017-Sep-16 11:30N 39°33' W 076°05'1 1.7
2017-Sep-16 11:00N 39°34' W 076°06'1 2.6
2017-Sep-16 10:30N 39°33' W 076°05'1 1.8
2017-Sep-16 10:01N 39°34' W 076°06'1 2.9
2017-Sep-16 09:30N 39°33' W 076°04'0 0.0
2017-Sep-16 09:00N 39°33' W 076°04'0 0.1
2017-Sep-16 08:30N 39°33' W 076°04'0 0.1
2017-Sep-16 08:00N 39°33' W 076°04'1 1.7
2017-Sep-16 07:31N 39°32' W 076°05'3 6.0
2017-Sep-16 07:00N 39°29' W 076°05'3 5.9
2017-Sep-16 06:30N 39°27' W 076°02'3 5.9
2017-Sep-16 06:00N 39°24' W 076°04'3 5.7
2017-Sep-16 05:30N 39°23' W 076°07'3 5.6
2017-Sep-16 05:00N 39°21' W 076°10'3 5.2
2017-Sep-16 04:30N 39°19' W 076°12'2 4.7
2017-Sep-16 04:00N 39°17' W 076°14'3 5.2
2017-Sep-16 03:30N 39°15' W 076°14'3 5.0
2017-Sep-16 03:00N 39°12' W 076°15'3 4.8
2017-Sep-16 02:25N 39°10' W 076°18'2 4.8
2017-Sep-16 02:01N 39°09' W 076°19'3 5.1
2017-Sep-16 01:31N 39°06' W 076°20'3 5.2
2017-Sep-16 01:00N 39°04' W 076°21'3 5.2
2017-Sep-16 00:30N 39°01' W 076°22'3 4.7
2017-Sep-15 23:53N 38°58' W 076°23'12 1.0
2017-Sep-15 12:29N 38°47' W 076°22'1 1.3
2017-Sep-15 11:51N 38°46' W 076°21'0 0.0
2017-Sep-15 11:21N 38°46' W 076°21'0 0.0
2017-Sep-15 11:00N 38°46' W 076°21'0 0.0
2017-Sep-15 10:30N 38°46' W 076°21'0 0.0
2017-Sep-15 09:21N 38°46' W 076°21'0 0.6
2017-Sep-15 08:59N 38°46' W 076°21'5 3.9
2017-Sep-15 07:49N 38°50' W 076°24'2 4.5
2017-Sep-15 07:28N 38°52' W 076°24'2 4.6
2017-Sep-15 07:00N 38°54' W 076°24'2 4.2
2017-Sep-15 06:30N 38°56' W 076°24'2 3.8
2017-Sep-15 06:00N 38°58' W 076°23'2 3.9
2017-Sep-15 05:30N 39°00' W 076°23'2 3.5
2017-Sep-15 05:00N 39°02' W 076°22'2 3.7
2017-Sep-15 04:30N 39°04' W 076°21'2 3.7
2017-Sep-15 04:00N 39°05' W 076°21'2 3.8
2017-Sep-15 03:30N 39°07' W 076°20'2 4.2
2017-Sep-15 03:00N 39°09' W 076°19'2 4.8
2017-Sep-15 02:30N 39°11' W 076°17'3 5.0
2017-Sep-15 02:00N 39°13' W 076°15'3 5.2
2017-Sep-15 01:30N 39°15' W 076°14'3 5.6
2017-Sep-15 01:00N 39°18' W 076°13'3 5.7
2017-Sep-15 00:30N 39°20' W 076°11'3 5.8
2017-Sep-15 00:00N 39°22' W 076°08'3 5.6
2017-Sep-14 23:30N 39°23' W 076°05'2 4.8
2017-Sep-14 23:00N 39°25' W 076°03'2 4.2
2017-Sep-14 22:30N 39°27' W 076°03'2 4.4
2017-Sep-14 22:00N 39°29' W 076°05'2 3.8
2017-Sep-14 21:30N 39°31' W 076°05'2 4.1
2017-Sep-14 21:00N 39°33' W 076°05'0 0.4
2017-Sep-14 20:31N 39°33' W 076°05'2 3.9
2017-Sep-14 19:59N 39°34' W 076°06'0 0.1
2017-Sep-14 19:29N 39°34' W 076°06'0 0.0
2017-Sep-14 18:59N 39°34' W 076°06'0 0.0
2017-Sep-14 18:29N 39°34' W 076°06'0 0.0
2017-Sep-14 17:59N 39°34' W 076°06'0 0.0
2017-Sep-14 17:23N 39°34' W 076°06'0 1.0
2017-Sep-14 17:00N 39°34' W 076°06'2 3.0
2017-Sep-14 16:30N 39°33' W 076°05'2 3.6
2017-Sep-14 16:00N 39°34' W 076°06'0 0.1
2017-Sep-14 15:30N 39°34' W 076°06'0 0.0
2017-Sep-14 15:00N 39°34' W 076°06'0 0.0
2017-Sep-14 14:30N 39°34' W 076°06'0 0.0
2017-Sep-14 14:00N 39°34' W 076°06'0 0.0
2017-Sep-14 13:30N 39°34' W 076°06'0 0.0
2017-Sep-14 12:57N 39°34' W 076°06'0 0.0
2017-Sep-14 12:21N 39°34' W 076°06'0 0.0
2017-Sep-14 12:00N 39°34' W 076°06'0 0.0
2017-Sep-14 11:30N 39°34' W 076°06'0 0.0
2017-Sep-14 11:00N 39°34' W 076°06'0 0.0
2017-Sep-14 10:30N 39°34' W 076°06'0 0.0
2017-Sep-14 10:00N 39°34' W 076°06'2 3.6
2017-Sep-14 09:30N 39°33' W 076°05'1 1.7
2017-Sep-14 09:00N 39°34' W 076°05'1 1.5
2017-Sep-14 08:30N 39°34' W 076°06'2 3.9
2017-Sep-14 08:00N 39°33' W 076°05'0 0.1
2017-Sep-14 07:25N 39°33' W 076°05'2 4.8
2017-Sep-14 07:01N 39°31' W 076°05'3 5.2
2017-Sep-14 06:31N 39°28' W 076°04'3 5.7
2017-Sep-14 06:00N 39°26' W 076°02'3 6.3
2017-Sep-14 05:31N 39°23' W 076°05'3 6.9
2017-Sep-14 05:01N 39°22' W 076°09'3 6.7
2017-Sep-14 04:30N 39°20' W 076°12'3 6.3
2017-Sep-14 04:00N 39°17' W 076°14'3 6.3
2017-Sep-14 03:31N 39°14' W 076°15'3 6.4
2017-Sep-14 03:00N 39°11' W 076°17'3 6.1
2017-Sep-14 02:30N 39°09' W 076°20'3 5.8
2017-Sep-14 01:59N 39°06' W 076°21'3 6.1
2017-Sep-14 01:29N 39°03' W 076°22'3 6.0
2017-Sep-14 01:01N 39°00' W 076°23'9 5.5
2017-Sep-13 23:25N 38°51' W 076°25'2 5.3
2017-Sep-13 22:58N 38°49' W 076°23'2 5.1
2017-Sep-13 22:29N 38°47' W 076°22'1 0.1
2017-Sep-13 08:04N 38°46' W 076°21'0 0.0
2017-Sep-13 07:59N 38°46' W 076°21'0 0.0
2017-Sep-13 07:29N 38°46' W 076°21'0 0.0
2017-Sep-13 06:58N 38°46' W 076°21'0 0.0
2017-Sep-13 06:20N 38°46' W 076°21'0 0.0
2017-Sep-13 01:53N 38°46' W 076°21'0 0.0
2017-Sep-13 01:29N 38°46' W 076°21'5 4.4
2017-Sep-13 00:28N 38°50' W 076°24'3 5.8
2017-Sep-13 00:01N 38°53' W 076°24'3 5.9
2017-Sep-12 23:30N 38°56' W 076°24'4 6.5
2017-Sep-12 22:57N 38°60' W 076°23'3 6.4
2017-Sep-12 22:30N 39°02' W 076°22'3 6.4
2017-Sep-12 22:00N 39°05' W 076°21'3 6.6
2017-Sep-12 21:30N 39°08' W 076°19'4 6.9
2017-Sep-12 20:57N 39°11' W 076°16'3 6.7
2017-Sep-12 20:29N 39°14' W 076°14'5 6.4
2017-Sep-12 19:40N 39°19' W 076°12'1 6.1
2017-Sep-12 19:30N 39°20' W 076°12'3 5.8
2017-Sep-12 19:00N 39°22' W 076°09'3 5.6
2017-Sep-12 18:31N 39°23' W 076°05'3 5.0
2017-Sep-12 17:59N 39°25' W 076°03'3 4.9
2017-Sep-12 17:26N 39°27' W 076°03'2 5.0
2017-Sep-12 17:01N 39°29' W 076°05'2 4.6
2017-Sep-12 16:30N 39°31' W 076°05'2 5.0
2017-Sep-12 16:00N 39°34' W 076°05'1 1.8
2017-Sep-12 15:27N 39°34' W 076°06'0 0.0
2017-Sep-12 14:48N 39°34' W 076°06'0 0.0
2017-Sep-12 14:30N 39°34' W 076°06'0 0.0
2017-Sep-12 14:00N 39°34' W 076°06'0 0.0
2017-Sep-12 13:21N 39°34' W 076°06'0 0.0
2017-Sep-12 12:57N 39°34' W 076°06'0 0.1
2017-Sep-12 09:14N 39°34' W 076°06'0 0.0
2017-Sep-12 08:59N 39°34' W 076°06'0 0.0
2017-Sep-12 08:29N 39°34' W 076°06'0 0.0
2017-Sep-12 07:53N 39°34' W 076°06'0 0.0
2017-Sep-12 07:26N 39°34' W 076°06'0 0.0
2017-Sep-12 06:59N 39°34' W 076°06'0 0.0
2017-Sep-12 06:29N 39°34' W 076°06'1 2.5
2017-Sep-12 06:00N 39°33' W 076°05'3 6.6
2017-Sep-12 05:31N 39°30' W 076°05'3 6.5
2017-Sep-12 05:00N 39°27' W 076°03'3 6.8
2017-Sep-12 04:31N 39°24' W 076°03'4 7.6
2017-Sep-12 04:01N 39°22' W 076°08'4 7.7
2017-Sep-12 03:30N 39°20' W 076°12'4 7.5
2017-Sep-12 03:00N 39°17' W 076°14'4 7.3
2017-Sep-12 02:30N 39°13' W 076°15'4 7.5
2017-Sep-12 01:59N 39°10' W 076°18'11 7.0
2017-Sep-12 00:27N 38°60' W 076°23'5 6.8
2017-Sep-11 23:41N 38°55' W 076°24'8 0.8
2017-Sep-11 13:10N 38°46' W 076°24'1 5.5
2017-Sep-11 13:01N 38°47' W 076°23'1 0.5
2017-Sep-11 11:37N 38°47' W 076°22'0 0.2
2017-Sep-11 11:19N 38°47' W 076°22'0 1.3
2017-Sep-11 11:00N 38°47' W 076°22'  

Dump ship's entire track history